createdAt,value
2023-02-15T00:00:40.144Z,0.00
2023-02-15T00:01:40.186Z,0.00
2023-02-15T00:02:40.129Z,0.00
2023-02-15T00:03:40.126Z,0.00
2023-02-15T00:04:40.103Z,0.00
2023-02-15T00:05:40.096Z,0.00
2023-02-15T00:06:40.118Z,0.00
2023-02-15T00:07:40.077Z,0.00
2023-02-15T00:08:40.050Z,0.00
2023-02-15T00:09:40.059Z,0.00
2023-02-15T00:10:40.023Z,0.00
2023-02-15T00:11:40.074Z,0.00
2023-02-15T00:12:40.046Z,0.00
2023-02-15T00:13:40.040Z,0.00
2023-02-15T00:14:40.016Z,0.00
2023-02-15T00:15:39.966Z,0.00
2023-02-15T00:16:40.072Z,0.00
2023-02-15T00:17:39.950Z,0.00
2023-02-15T00:18:39.938Z,0.00
2023-02-15T00:19:39.939Z,0.00
2023-02-15T00:20:39.910Z,0.00
2023-02-15T00:21:39.970Z,0.00
2023-02-15T00:22:39.906Z,0.00
2023-02-15T00:23:39.910Z,0.00
2023-02-15T00:24:39.896Z,0.00
2023-02-15T00:25:39.868Z,0.00
2023-02-15T00:26:39.859Z,0.00
2023-02-15T00:27:39.879Z,0.00
2023-02-15T00:28:39.833Z,0.00
2023-02-15T00:29:39.828Z,0.00
2023-02-15T00:30:39.873Z,0.00
2023-02-15T00:31:39.870Z,0.00
2023-02-15T00:32:39.825Z,0.00
2023-02-15T00:33:39.783Z,0.00
2023-02-15T00:34:39.760Z,0.00
2023-02-15T00:35:39.761Z,0.00
2023-02-15T00:36:39.745Z,0.00
2023-02-15T00:37:39.784Z,0.00
2023-02-15T00:38:39.730Z,0.00
2023-02-15T00:39:39.707Z,0.00
2023-02-15T00:40:39.713Z,0.00
2023-02-15T00:41:39.701Z,0.00
2023-02-15T00:42:39.728Z,0.00
2023-02-15T00:43:39.681Z,0.00
2023-02-15T00:44:39.670Z,0.00
2023-02-15T00:45:39.736Z,0.00
2023-02-15T00:46:39.634Z,0.00
2023-02-15T00:47:39.669Z,0.00
2023-02-15T00:48:39.623Z,0.00
2023-02-15T00:49:39.614Z,0.00
2023-02-15T00:50:39.605Z,0.00
2023-02-15T00:51:39.576Z,0.00
2023-02-15T00:52:39.610Z,0.00
2023-02-15T00:53:39.570Z,0.00
2023-02-15T00:54:39.556Z,0.00
2023-02-15T00:55:39.544Z,0.00
2023-02-15T00:56:39.539Z,0.00
2023-02-15T00:57:39.574Z,0.00
2023-02-15T00:58:39.535Z,0.00
2023-02-15T00:59:39.507Z,0.00
2023-02-15T01:00:39.493Z,0.00
2023-02-15T01:01:39.484Z,0.00
2023-02-15T01:02:39.503Z,0.00
2023-02-15T01:03:39.466Z,0.00
2023-02-15T01:04:39.562Z,0.00
2023-02-15T01:05:39.445Z,0.00
2023-02-15T01:06:39.427Z,0.00
2023-02-15T01:07:39.461Z,0.00
2023-02-15T01:08:39.410Z,0.00
2023-02-15T01:09:39.427Z,0.00
2023-02-15T01:10:39.406Z,0.00
2023-02-15T01:11:39.399Z,0.00
2023-02-15T01:12:39.419Z,0.00
2023-02-15T01:13:39.393Z,0.00
2023-02-15T01:14:39.373Z,0.00
2023-02-15T01:15:39.373Z,0.00
2023-02-15T01:16:39.337Z,0.00
2023-02-15T01:17:39.366Z,0.00
2023-02-15T01:18:39.296Z,0.00
2023-02-15T01:19:39.340Z,0.00
2023-02-15T01:20:39.272Z,0.00
2023-02-15T01:21:39.261Z,0.00
2023-02-15T01:22:39.251Z,0.00
2023-02-15T01:23:39.297Z,0.00
2023-02-15T01:24:39.258Z,0.00
2023-02-15T01:25:39.220Z,0.00
2023-02-15T01:26:39.220Z,0.00
2023-02-15T01:27:39.210Z,0.00
2023-02-15T01:28:39.247Z,0.00
2023-02-15T01:29:39.193Z,0.00
2023-02-15T01:30:39.173Z,0.00
2023-02-15T01:31:39.265Z,0.00
2023-02-15T01:32:39.163Z,0.00
2023-02-15T01:33:39.183Z,0.00
2023-02-15T01:34:39.132Z,0.00
2023-02-15T01:35:39.123Z,0.00
2023-02-15T01:36:39.114Z,0.00
2023-02-15T01:37:39.112Z,0.00
2023-02-15T01:38:39.109Z,0.00
2023-02-15T01:39:39.076Z,0.00
2023-02-15T01:40:39.083Z,0.00
2023-02-15T01:41:39.055Z,0.00
2023-02-15T01:42:39.048Z,0.00
2023-02-15T01:43:39.071Z,0.00
2023-02-15T01:44:39.038Z,0.00
2023-02-15T01:45:39.011Z,0.00
2023-02-15T01:46:39.001Z,0.00
2023-02-15T01:47:38.992Z,0.00
2023-02-15T01:48:39.018Z,0.00
2023-02-15T01:49:38.970Z,0.00
2023-02-15T01:50:38.943Z,0.00
2023-02-15T01:51:38.945Z,0.00
2023-02-15T01:52:38.944Z,0.00
2023-02-15T01:53:38.959Z,0.00
2023-02-15T01:54:38.901Z,0.00
2023-02-15T01:55:38.911Z,0.00
2023-02-15T01:56:38.889Z,0.00
2023-02-15T01:57:38.885Z,0.00
2023-02-15T01:58:38.914Z,0.00
2023-02-15T01:59:38.862Z,0.00
2023-02-15T02:00:38.849Z,0.00
2023-02-15T02:01:38.850Z,0.00
2023-02-15T02:02:38.860Z,0.00
2023-02-15T02:03:38.843Z,0.00
2023-02-15T02:04:38.803Z,0.00
2023-02-15T02:05:38.797Z,0.00
2023-02-15T02:06:38.782Z,0.00
2023-02-15T02:07:38.774Z,0.00
2023-02-15T02:08:38.809Z,0.00
2023-02-15T02:09:38.753Z,0.00
2023-02-15T02:10:38.716Z,0.00
2023-02-15T02:11:38.727Z,0.00
2023-02-15T02:12:38.719Z,0.00
2023-02-15T02:13:38.701Z,0.00
2023-02-15T02:14:38.745Z,0.00
2023-02-15T02:15:38.767Z,0.00
2023-02-15T02:16:38.663Z,0.00
2023-02-15T02:17:38.654Z,0.00
2023-02-15T02:18:38.633Z,0.00
2023-02-15T02:19:38.668Z,0.00
2023-02-15T02:20:38.635Z,0.00
2023-02-15T02:21:38.611Z,0.00
2023-02-15T02:22:38.644Z,0.00
2023-02-15T02:23:38.601Z,0.00
2023-02-15T02:24:38.669Z,0.00
2023-02-15T02:25:38.570Z,0.00
2023-02-15T02:26:38.576Z,0.00
2023-02-15T02:27:38.574Z,0.00
2023-02-15T02:28:38.536Z,0.00
2023-02-15T02:29:38.563Z,0.00
2023-02-15T02:30:38.749Z,0.00
2023-02-15T02:31:38.598Z,0.00
2023-02-15T02:32:38.486Z,0.00
2023-02-15T02:33:38.478Z,0.00
2023-02-15T02:34:38.513Z,0.00
2023-02-15T02:35:38.453Z,0.00
2023-02-15T02:36:38.448Z,0.00
2023-02-15T02:37:38.463Z,0.00
2023-02-15T02:38:38.439Z,0.00
2023-02-15T02:39:38.469Z,0.00
2023-02-15T02:40:38.423Z,0.00
2023-02-15T02:41:38.408Z,0.00
2023-02-15T02:42:38.393Z,0.00
2023-02-15T02:43:38.390Z,0.00
2023-02-15T02:44:38.412Z,0.00
2023-02-15T02:45:38.338Z,0.00
2023-02-15T02:46:38.424Z,0.00
2023-02-15T02:47:38.338Z,0.00
2023-02-15T02:48:38.327Z,0.00
2023-02-15T02:49:38.353Z,0.00
2023-02-15T02:50:38.294Z,0.00
2023-02-15T02:51:38.303Z,0.00
2023-02-15T02:52:38.287Z,0.00
2023-02-15T02:53:38.256Z,0.00
2023-02-15T02:54:38.418Z,0.00
2023-02-15T02:55:38.256Z,0.00
2023-02-15T02:56:38.236Z,0.00
2023-02-15T02:57:38.335Z,0.00
2023-02-15T02:58:38.221Z,0.00
2023-02-15T02:59:38.242Z,0.00
2023-02-15T03:00:38.181Z,0.00
2023-02-15T03:01:38.204Z,0.00
2023-02-15T03:02:38.193Z,0.00
2023-02-15T03:03:38.156Z,0.00
2023-02-15T03:04:38.184Z,0.00
2023-02-15T03:05:38.136Z,0.00
2023-02-15T03:06:38.117Z,0.00
2023-02-15T03:07:38.095Z,0.00
2023-02-15T03:08:38.106Z,0.00
2023-02-15T03:09:38.117Z,0.00
2023-02-15T03:10:38.078Z,0.00
2023-02-15T03:11:38.059Z,0.00
2023-02-15T03:12:38.066Z,0.00
2023-02-15T03:13:38.047Z,0.00
2023-02-15T03:14:38.072Z,0.00
2023-02-15T03:15:38.011Z,0.00
2023-02-15T03:16:38.037Z,0.00
2023-02-15T03:17:38.012Z,0.00
2023-02-15T03:18:38.002Z,0.00
2023-02-15T03:19:38.028Z,0.00
2023-02-15T03:20:37.963Z,0.00
2023-02-15T03:21:37.975Z,0.00
2023-02-15T03:22:37.964Z,0.00
2023-02-15T03:23:37.933Z,0.00
2023-02-15T03:24:37.977Z,0.00
2023-02-15T03:25:37.923Z,0.00
2023-02-15T03:26:37.895Z,0.00
2023-02-15T03:27:37.887Z,0.00
2023-02-15T03:28:37.903Z,0.00
2023-02-15T03:29:37.896Z,0.00
2023-02-15T03:30:37.871Z,0.00
2023-02-15T03:31:37.963Z,0.00
2023-02-15T03:32:37.846Z,0.00
2023-02-15T03:33:37.826Z,0.00
2023-02-15T03:34:37.854Z,0.00
2023-02-15T03:35:37.809Z,0.00
2023-02-15T03:36:37.809Z,0.00
2023-02-15T03:37:37.784Z,0.00
2023-02-15T03:38:37.783Z,0.00
2023-02-15T03:39:37.806Z,0.00
2023-02-15T03:40:37.773Z,0.00
2023-02-15T03:41:37.730Z,0.00
2023-02-15T03:42:37.724Z,0.00
2023-02-15T03:43:37.749Z,0.00
2023-02-15T03:44:37.716Z,0.00
2023-02-15T03:45:37.724Z,0.00
2023-02-15T03:46:37.731Z,0.00
2023-02-15T03:47:37.671Z,0.00
2023-02-15T03:48:37.685Z,0.00
2023-02-15T03:49:37.677Z,0.00
2023-02-15T03:50:37.703Z,0.00
2023-02-15T03:51:37.625Z,0.00
2023-02-15T03:52:37.678Z,0.00
2023-02-15T03:53:37.611Z,0.00
2023-02-15T03:54:37.602Z,0.00
2023-02-15T03:55:37.626Z,0.00
2023-02-15T03:56:37.572Z,0.00
2023-02-15T03:57:37.583Z,0.00
2023-02-15T03:58:37.558Z,0.00
2023-02-15T03:59:37.570Z,0.00
2023-02-15T04:00:37.581Z,0.00
2023-02-15T04:01:37.533Z,0.00
2023-02-15T04:02:37.563Z,0.00
2023-02-15T04:03:37.524Z,0.00
2023-02-15T04:04:37.495Z,0.00
2023-02-15T04:05:37.513Z,0.00
2023-02-15T04:06:37.477Z,0.00
2023-02-15T04:07:37.442Z,0.00
2023-02-15T04:08:37.454Z,0.00
2023-02-15T04:09:37.430Z,0.00
2023-02-15T04:10:37.474Z,0.00
2023-02-15T04:11:37.424Z,0.00
2023-02-15T04:12:37.397Z,0.00
2023-02-15T04:13:37.377Z,0.00
2023-02-15T04:14:37.375Z,0.00
2023-02-15T04:15:37.391Z,0.00
2023-02-15T04:16:37.416Z,0.00
2023-02-15T04:17:37.348Z,0.00
2023-02-15T04:18:37.333Z,0.00
2023-02-15T04:19:37.306Z,0.00
2023-02-15T04:20:37.348Z,0.00
2023-02-15T04:21:37.298Z,0.00
2023-02-15T04:22:37.294Z,0.00
2023-02-15T04:23:37.263Z,0.00
2023-02-15T04:24:37.278Z,0.00
2023-02-15T04:25:37.296Z,0.00
2023-02-15T04:26:37.247Z,0.00
2023-02-15T04:27:37.247Z,0.00
2023-02-15T04:28:37.235Z,0.00
2023-02-15T04:29:37.210Z,0.00
2023-02-15T04:30:37.232Z,0.00
2023-02-15T04:31:37.354Z,0.00
2023-02-15T04:32:37.171Z,0.00
2023-02-15T04:33:37.156Z,0.00
2023-02-15T04:34:37.147Z,0.00
2023-02-15T04:35:37.162Z,0.00
2023-02-15T04:36:37.143Z,0.00
2023-02-15T04:37:37.114Z,0.00
2023-02-15T04:38:37.107Z,0.00
2023-02-15T04:39:37.077Z,0.00
2023-02-15T04:40:37.113Z,0.00
2023-02-15T04:41:37.190Z,0.00
2023-02-15T04:42:37.064Z,0.00
2023-02-15T04:43:37.041Z,0.00
2023-02-15T04:44:37.049Z,0.00
2023-02-15T04:45:37.080Z,0.00
2023-02-15T04:46:37.412Z,0.00
2023-02-15T04:47:37.003Z,0.00
2023-02-15T04:48:36.994Z,0.00
2023-02-15T04:49:36.978Z,0.00
2023-02-15T04:50:37.010Z,0.00
2023-02-15T04:51:36.954Z,0.00
2023-02-15T04:52:36.954Z,0.00
2023-02-15T04:53:36.946Z,0.00
2023-02-15T04:54:36.949Z,0.00
2023-02-15T04:55:36.974Z,0.00
2023-02-15T04:56:36.910Z,0.00
2023-02-15T04:57:36.906Z,0.00
2023-02-15T04:58:36.895Z,0.00
2023-02-15T04:59:36.881Z,0.00
2023-02-15T05:00:36.912Z,0.00
2023-02-15T05:01:36.859Z,0.00
2023-02-15T05:02:36.835Z,0.00
2023-02-15T05:03:36.834Z,0.00
2023-02-15T05:04:36.823Z,0.00
2023-02-15T05:05:36.848Z,0.00
2023-02-15T05:06:36.808Z,0.00
2023-02-15T05:07:36.916Z,0.00
2023-02-15T05:08:37.172Z,0.00
2023-02-15T05:09:36.791Z,0.00
2023-02-15T05:10:36.796Z,0.00
2023-02-15T05:11:36.722Z,0.00
2023-02-15T05:12:36.716Z,0.00
2023-02-15T05:13:36.701Z,0.00
2023-02-15T05:14:36.719Z,0.00
2023-02-15T05:15:36.747Z,0.00
2023-02-15T05:16:36.746Z,0.00
2023-02-15T05:17:36.681Z,0.00
2023-02-15T05:18:36.656Z,0.00
2023-02-15T05:19:36.645Z,0.00
2023-02-15T05:20:36.673Z,0.00
2023-02-15T05:21:36.621Z,0.00
2023-02-15T05:22:36.625Z,0.00
2023-02-15T05:23:36.625Z,0.00
2023-02-15T05:24:36.596Z,0.00
2023-02-15T05:25:36.616Z,0.00
2023-02-15T05:26:36.586Z,0.00
2023-02-15T05:27:36.556Z,0.00
2023-02-15T05:28:36.559Z,0.00
2023-02-15T05:29:36.590Z,0.00
2023-02-15T05:30:36.754Z,0.00
2023-02-15T05:31:37.152Z,0.00
2023-02-15T05:32:36.681Z,0.00
2023-02-15T05:33:36.495Z,0.00
2023-02-15T05:34:36.495Z,0.00
2023-02-15T05:35:36.849Z,0.00
2023-02-15T05:36:36.487Z,0.00
2023-02-15T05:37:36.455Z,0.00
2023-02-15T05:38:36.443Z,0.00
2023-02-15T05:39:36.425Z,0.00
2023-02-15T05:40:36.458Z,0.00
2023-02-15T05:41:36.415Z,0.00
2023-02-15T05:42:36.395Z,0.00
2023-02-15T05:43:36.391Z,0.00
2023-02-15T05:44:36.384Z,0.00
2023-02-15T05:45:36.391Z,0.00
2023-02-15T05:46:36.369Z,0.00
2023-02-15T05:47:36.346Z,0.00
2023-02-15T05:48:36.370Z,0.00
2023-02-15T05:49:36.312Z,0.00
2023-02-15T05:50:36.352Z,0.00
2023-02-15T05:51:36.665Z,0.00
2023-02-15T05:52:36.309Z,0.00
2023-02-15T05:53:36.276Z,0.00
2023-02-15T05:54:36.611Z,0.00
2023-02-15T05:55:36.273Z,0.00
2023-02-15T05:56:36.239Z,0.00
2023-02-15T05:57:36.255Z,0.00
2023-02-15T05:58:36.261Z,0.00
2023-02-15T05:59:36.223Z,0.00
2023-02-15T06:00:38.078Z,0.00
2023-02-15T06:01:36.208Z,0.00
2023-02-15T06:02:36.253Z,0.00
2023-02-15T06:03:36.197Z,0.00
2023-02-15T06:04:36.183Z,0.00
2023-02-15T06:05:36.183Z,5.62
2023-02-15T06:06:36.150Z,5.62
2023-02-15T06:07:36.109Z,5.62
2023-02-15T06:08:36.125Z,5.62
2023-02-15T06:09:36.101Z,5.62
2023-02-15T06:10:36.159Z,5.62
2023-02-15T06:11:36.082Z,11.25
2023-02-15T06:12:36.094Z,11.25
2023-02-15T06:13:38.540Z,11.25
2023-02-15T06:14:36.096Z,11.25
2023-02-15T06:15:36.146Z,11.25
2023-02-15T06:16:36.028Z,16.88
2023-02-15T06:17:36.029Z,16.88
2023-02-15T06:18:36.039Z,16.88
2023-02-15T06:19:36.000Z,22.50
2023-02-15T06:20:36.026Z,22.50
2023-02-15T06:21:35.993Z,22.50
2023-02-15T06:22:35.996Z,22.50
2023-02-15T06:23:36.047Z,28.12
2023-02-15T06:24:35.945Z,28.12
2023-02-15T06:25:37.250Z,33.75
2023-02-15T06:26:35.922Z,33.75
2023-02-15T06:27:35.909Z,33.75
2023-02-15T06:28:35.917Z,39.38
2023-02-15T06:29:35.892Z,39.38
2023-02-15T06:30:35.901Z,45.00
2023-02-15T06:31:35.966Z,45.00
2023-02-15T06:32:35.875Z,50.62
2023-02-15T06:33:35.845Z,50.62
2023-02-15T06:34:35.837Z,56.25
2023-02-15T06:35:35.889Z,56.25
2023-02-15T06:36:35.796Z,61.88
2023-02-15T06:37:35.785Z,61.88
2023-02-15T06:38:35.794Z,67.50
2023-02-15T06:39:35.775Z,67.50
2023-02-15T06:40:35.834Z,73.12
2023-02-15T06:41:35.801Z,73.12
2023-02-15T06:42:35.746Z,78.75
2023-02-15T06:43:35.734Z,84.38
2023-02-15T06:44:35.726Z,84.38
2023-02-15T06:45:35.766Z,90.00
2023-02-15T06:46:35.731Z,95.62
2023-02-15T06:47:35.700Z,95.62
2023-02-15T06:48:35.678Z,95.62
2023-02-15T06:49:35.662Z,101.25
2023-02-15T06:50:35.771Z,101.25
2023-02-15T06:51:35.655Z,106.88
2023-02-15T06:52:35.632Z,112.50
2023-02-15T06:53:36.017Z,118.12
2023-02-15T06:54:35.611Z,118.12
2023-02-15T06:55:35.661Z,118.12
2023-02-15T06:56:35.575Z,129.38
2023-02-15T06:57:35.587Z,135.00
2023-02-15T06:58:35.567Z,140.62
2023-02-15T06:59:35.565Z,146.25
2023-02-15T07:00:35.624Z,151.88
2023-02-15T07:01:35.526Z,146.25
2023-02-15T07:02:35.514Z,151.88
2023-02-15T07:03:35.500Z,157.50
2023-02-15T07:04:35.509Z,168.75
2023-02-15T07:05:35.521Z,174.38
2023-02-15T07:06:35.457Z,180.00
2023-02-15T07:07:35.464Z,185.62
2023-02-15T07:08:35.458Z,196.88
2023-02-15T07:09:35.440Z,202.50
2023-02-15T07:10:35.458Z,208.12
2023-02-15T07:11:35.432Z,202.50
2023-02-15T07:12:35.387Z,213.75
2023-02-15T07:13:35.411Z,236.25
2023-02-15T07:14:35.401Z,275.62
2023-02-15T07:15:35.425Z,286.88
2023-02-15T07:16:35.347Z,315.00
2023-02-15T07:17:36.480Z,326.25
2023-02-15T07:18:35.359Z,303.75
2023-02-15T07:19:35.355Z,281.25
2023-02-15T07:20:37.422Z,298.12
2023-02-15T07:21:35.333Z,343.12
2023-02-15T07:22:35.282Z,360.00
2023-02-15T07:23:35.305Z,365.62
2023-02-15T07:24:35.278Z,360.00
2023-02-15T07:25:35.649Z,354.38
2023-02-15T07:26:35.254Z,348.75
2023-02-15T07:27:35.271Z,343.12
2023-02-15T07:28:35.231Z,343.12
2023-02-15T07:29:35.238Z,348.75
2023-02-15T07:30:35.272Z,348.75
2023-02-15T07:31:35.210Z,354.38
2023-02-15T07:32:35.267Z,360.00
2023-02-15T07:33:35.169Z,365.62
2023-02-15T07:34:35.154Z,371.25
2023-02-15T07:35:35.177Z,376.88
2023-02-15T07:36:35.124Z,382.50
2023-02-15T07:37:35.507Z,388.12
2023-02-15T07:38:35.119Z,393.75
2023-02-15T07:39:35.111Z,405.00
2023-02-15T07:40:35.139Z,416.25
2023-02-15T07:41:35.087Z,427.50
2023-02-15T07:42:35.051Z,438.75
2023-02-15T07:43:35.052Z,455.62
2023-02-15T07:44:35.056Z,478.12
2023-02-15T07:45:35.080Z,489.38
2023-02-15T07:46:35.105Z,495.00
2023-02-15T07:47:35.029Z,511.88
2023-02-15T07:48:35.024Z,523.12
2023-02-15T07:49:35.003Z,528.75
2023-02-15T07:50:35.046Z,528.75
2023-02-15T07:51:34.985Z,540.00
2023-02-15T07:52:34.959Z,551.25
2023-02-15T07:53:34.998Z,562.50
2023-02-15T07:54:34.940Z,579.38
2023-02-15T07:55:34.976Z,596.25
2023-02-15T07:56:37.076Z,607.50
2023-02-15T07:57:34.896Z,630.00
2023-02-15T07:58:34.899Z,691.88
2023-02-15T07:59:34.859Z,759.38
2023-02-15T08:00:34.905Z,804.38
2023-02-15T08:01:34.853Z,900.00
2023-02-15T08:02:34.893Z,950.62
2023-02-15T08:03:34.900Z,916.88
2023-02-15T08:04:34.816Z,939.38
2023-02-15T08:05:34.848Z,967.50
2023-02-15T08:06:34.809Z,950.62
2023-02-15T08:07:34.801Z,967.50
2023-02-15T08:08:34.793Z,1001.25
2023-02-15T08:09:34.780Z,1006.88
2023-02-15T08:10:34.811Z,1063.12
2023-02-15T08:11:34.857Z,1080.00
2023-02-15T08:12:34.732Z,1035.00
2023-02-15T08:13:34.719Z,1091.25
2023-02-15T08:14:34.719Z,1125.00
2023-02-15T08:15:34.738Z,1136.25
2023-02-15T08:16:34.778Z,1170.00
2023-02-15T08:17:34.668Z,1136.25
2023-02-15T08:18:34.690Z,1237.50
2023-02-15T08:19:34.671Z,1254.38
2023-02-15T08:20:34.696Z,1136.25
2023-02-15T08:21:34.639Z,1158.75
2023-02-15T08:22:34.662Z,1215.00
2023-02-15T08:23:34.630Z,1175.62
2023-02-15T08:24:34.602Z,1181.25
2023-02-15T08:25:34.645Z,1276.88
2023-02-15T08:26:34.568Z,1276.88
2023-02-15T08:27:34.552Z,1198.12
2023-02-15T08:28:34.542Z,1321.88
2023-02-15T08:29:34.563Z,1468.12
2023-02-15T08:30:36.366Z,1406.25
2023-02-15T08:31:34.724Z,1355.62
2023-02-15T08:32:34.541Z,1473.75
2023-02-15T08:33:34.495Z,1434.38
2023-02-15T08:34:34.508Z,1479.38
2023-02-15T08:35:34.500Z,1580.62
2023-02-15T08:36:34.524Z,1496.25
2023-02-15T08:37:34.463Z,1597.50
2023-02-15T08:38:34.435Z,1760.62
2023-02-15T08:39:34.523Z,1642.50
2023-02-15T08:40:34.438Z,1535.62
2023-02-15T08:41:34.451Z,1693.12
2023-02-15T08:42:34.413Z,1822.50
2023-02-15T08:43:34.390Z,1766.25
2023-02-15T08:44:34.416Z,1676.25
2023-02-15T08:45:34.384Z,1811.25
2023-02-15T08:46:34.397Z,1636.88
2023-02-15T08:47:34.344Z,1546.88
2023-02-15T08:48:34.352Z,1496.25
2023-02-15T08:49:34.330Z,1530.00
2023-02-15T08:50:34.339Z,1648.12
2023-02-15T08:51:34.344Z,1361.25
2023-02-15T08:52:34.296Z,1946.25
2023-02-15T08:53:34.278Z,2283.75
2023-02-15T08:54:34.254Z,2019.38
2023-02-15T08:55:34.228Z,2176.88
2023-02-15T08:56:34.267Z,1873.12
2023-02-15T08:57:34.237Z,1687.50
2023-02-15T08:58:34.223Z,1833.75
2023-02-15T08:59:34.244Z,1912.50
2023-02-15T09:00:34.202Z,1603.12
2023-02-15T09:01:34.377Z,2025.00
2023-02-15T09:02:34.249Z,2565.00
2023-02-15T09:03:34.158Z,2295.00
2023-02-15T09:04:34.165Z,2160.00
2023-02-15T09:05:34.143Z,2345.62
2023-02-15T09:06:34.173Z,2210.62
2023-02-15T09:07:34.109Z,2266.88
2023-02-15T09:08:34.095Z,2233.12
2023-02-15T09:09:34.117Z,2036.25
2023-02-15T09:10:34.065Z,1901.25
2023-02-15T09:11:34.115Z,1816.88
2023-02-15T09:12:34.096Z,1704.38
2023-02-15T09:13:34.054Z,1524.38
2023-02-15T09:14:34.039Z,1558.12
2023-02-15T09:15:34.053Z,1800.00
2023-02-15T09:16:34.112Z,1918.12
2023-02-15T09:17:34.007Z,1811.25
2023-02-15T09:18:33.985Z,2199.38
2023-02-15T09:19:33.977Z,1749.38
2023-02-15T09:20:33.961Z,1530.00
2023-02-15T09:21:34.041Z,1586.25
2023-02-15T09:22:33.944Z,1485.00
2023-02-15T09:23:33.921Z,1254.38
2023-02-15T09:24:33.917Z,973.12
2023-02-15T09:25:33.932Z,1029.38
2023-02-15T09:26:33.952Z,1158.75
2023-02-15T09:27:33.908Z,1006.88
2023-02-15T09:28:33.877Z,1046.25
2023-02-15T09:29:33.905Z,1417.50
2023-02-15T09:30:33.903Z,1305.00
2023-02-15T09:31:34.011Z,1535.62
2023-02-15T09:32:33.842Z,2030.62
2023-02-15T09:33:33.818Z,2266.88
2023-02-15T09:34:35.109Z,1822.50
2023-02-15T09:35:33.816Z,1575.00
2023-02-15T09:36:33.814Z,1676.25
2023-02-15T09:37:33.800Z,1372.50
2023-02-15T09:38:33.774Z,1254.38
2023-02-15T09:39:33.770Z,1586.25
2023-02-15T09:40:33.759Z,1338.75
2023-02-15T09:41:33.764Z,1501.88
2023-02-15T09:42:33.757Z,1738.12
2023-02-15T09:43:33.717Z,1209.38
2023-02-15T09:44:33.692Z,1046.25
2023-02-15T09:45:33.710Z,607.50
2023-02-15T09:46:33.735Z,821.25
2023-02-15T09:47:33.701Z,1462.50
2023-02-15T09:48:33.656Z,1192.50
2023-02-15T09:49:33.661Z,1395.00
2023-02-15T09:50:36.351Z,1462.50
2023-02-15T09:51:33.651Z,1327.50
2023-02-15T09:52:33.617Z,1698.75
2023-02-15T09:53:33.603Z,1603.12
2023-02-15T09:54:33.583Z,1546.88
2023-02-15T09:55:33.600Z,826.88
2023-02-15T09:56:33.598Z,888.75
2023-02-15T09:57:33.579Z,1591.88
2023-02-15T09:58:33.550Z,1822.50
2023-02-15T09:59:33.527Z,1507.50
2023-02-15T10:00:33.504Z,1428.75
2023-02-15T10:01:33.664Z,1243.12
2023-02-15T10:02:33.500Z,1091.25
2023-02-15T10:03:33.516Z,1350.00
2023-02-15T10:04:33.504Z,1248.75
2023-02-15T10:05:33.506Z,1096.88
2023-02-15T10:06:33.501Z,973.12
2023-02-15T10:07:33.455Z,860.62
2023-02-15T10:08:33.416Z,551.25
2023-02-15T10:09:33.442Z,950.62
2023-02-15T10:10:33.416Z,933.75
2023-02-15T10:11:33.460Z,708.75
2023-02-15T10:12:35.002Z,613.12
2023-02-15T10:13:33.383Z,556.88
2023-02-15T10:14:33.352Z,753.75
2023-02-15T10:15:33.356Z,770.62
2023-02-15T10:16:33.408Z,624.38
2023-02-15T10:17:33.356Z,703.12
2023-02-15T10:18:33.315Z,720.00
2023-02-15T10:19:33.295Z,916.88
2023-02-15T10:20:33.296Z,1136.25
2023-02-15T10:21:33.338Z,573.75
2023-02-15T10:22:33.293Z,601.88
2023-02-15T10:23:33.258Z,1136.25
2023-02-15T10:24:33.262Z,1063.12
2023-02-15T10:25:33.239Z,950.62
2023-02-15T10:26:33.251Z,1271.25
2023-02-15T10:27:33.237Z,1389.38
2023-02-15T10:28:33.204Z,1006.88
2023-02-15T10:29:33.191Z,607.50
2023-02-15T10:30:33.289Z,663.75
2023-02-15T10:31:33.322Z,776.25
2023-02-15T10:32:33.203Z,731.25
2023-02-15T10:33:33.155Z,843.75
2023-02-15T10:34:33.146Z,1552.50
2023-02-15T10:35:33.167Z,1400.62
2023-02-15T10:36:33.152Z,1243.12
2023-02-15T10:37:33.103Z,1451.25
2023-02-15T10:38:33.122Z,1192.50
2023-02-15T10:39:33.071Z,984.38
2023-02-15T10:40:33.061Z,1029.38
2023-02-15T10:41:33.103Z,1125.00
2023-02-15T10:42:33.065Z,826.88
2023-02-15T10:43:33.031Z,1046.25
2023-02-15T10:44:33.020Z,1518.75
2023-02-15T10:45:33.017Z,1760.62
2023-02-15T10:46:33.048Z,2143.12
2023-02-15T10:47:32.986Z,1788.75
2023-02-15T10:48:32.986Z,1597.50
2023-02-15T10:49:32.958Z,1558.12
2023-02-15T10:50:32.952Z,1575.00
2023-02-15T10:51:32.984Z,1051.88
2023-02-15T10:52:32.959Z,860.62
2023-02-15T10:53:32.909Z,1288.12
2023-02-15T10:54:32.917Z,1636.88
2023-02-15T10:55:32.906Z,1395.00
2023-02-15T10:56:32.933Z,1383.75
2023-02-15T10:57:32.882Z,1501.88
2023-02-15T10:58:32.882Z,1558.12
2023-02-15T10:59:32.874Z,1704.38
2023-02-15T11:00:32.978Z,1929.38
2023-02-15T11:01:32.927Z,1856.25
2023-02-15T11:02:32.820Z,1873.12
2023-02-15T11:03:32.802Z,1963.12
2023-02-15T11:04:32.841Z,1856.25
2023-02-15T11:05:32.780Z,1175.62
2023-02-15T11:06:32.822Z,1080.00
2023-02-15T11:07:32.760Z,1203.75
2023-02-15T11:08:32.770Z,1265.62
2023-02-15T11:09:32.742Z,1361.25
2023-02-15T11:10:32.739Z,1473.75
2023-02-15T11:11:32.737Z,1681.88
2023-02-15T11:12:32.710Z,1811.25
2023-02-15T11:13:32.692Z,1777.50
2023-02-15T11:14:32.666Z,1743.75
2023-02-15T11:15:32.674Z,1591.88
2023-02-15T11:16:32.725Z,1288.12
2023-02-15T11:17:32.657Z,1248.75
2023-02-15T11:18:32.651Z,1316.25
2023-02-15T11:19:32.628Z,1327.50
2023-02-15T11:20:32.628Z,1490.62
2023-02-15T11:21:32.653Z,1614.38
2023-02-15T11:22:32.609Z,1895.62
2023-02-15T11:23:32.564Z,2120.62
2023-02-15T11:24:32.578Z,2250.00
2023-02-15T11:25:32.569Z,2503.12
2023-02-15T11:26:32.577Z,2463.75
2023-02-15T11:27:32.577Z,2548.12
2023-02-15T11:28:32.531Z,2576.25
2023-02-15T11:29:32.526Z,2452.50
2023-02-15T11:30:32.636Z,2345.62
2023-02-15T11:31:32.709Z,2418.75
2023-02-15T11:32:32.510Z,2340.00
2023-02-15T11:33:32.504Z,2390.62
2023-02-15T11:34:32.555Z,2559.38
2023-02-15T11:35:32.444Z,2401.88
2023-02-15T11:36:32.490Z,2441.25
2023-02-15T11:37:32.411Z,2497.50
2023-02-15T11:38:32.435Z,2368.12
2023-02-15T11:39:32.403Z,2475.00
2023-02-15T11:40:32.380Z,2373.75
2023-02-15T11:41:32.408Z,2272.50
2023-02-15T11:42:32.367Z,2340.00
2023-02-15T11:43:32.339Z,2176.88
2023-02-15T11:44:32.325Z,2098.12
2023-02-15T11:45:32.306Z,2193.75
2023-02-15T11:46:32.383Z,1996.88
2023-02-15T11:47:32.318Z,1963.12
2023-02-15T11:48:32.300Z,2053.12
2023-02-15T11:49:32.251Z,1918.12
2023-02-15T11:50:32.279Z,1946.25
2023-02-15T11:51:32.306Z,1980.00
2023-02-15T11:52:32.268Z,1929.38
2023-02-15T11:53:32.239Z,1974.38
2023-02-15T11:54:32.237Z,1940.62
2023-02-15T11:55:32.220Z,1996.88
2023-02-15T11:56:32.244Z,2013.75
2023-02-15T11:57:32.207Z,1968.75
2023-02-15T11:58:32.186Z,2064.38
2023-02-15T11:59:32.176Z,2025.00
2023-02-15T12:00:32.190Z,2019.38
2023-02-15T12:01:32.169Z,2036.25
2023-02-15T12:02:32.128Z,1935.00
2023-02-15T12:03:32.171Z,1980.00
2023-02-15T12:04:32.131Z,1951.88
2023-02-15T12:05:32.099Z,1957.50
2023-02-15T12:06:32.125Z,1991.25
2023-02-15T12:07:32.094Z,1940.62
2023-02-15T12:08:32.082Z,1951.88
2023-02-15T12:09:32.067Z,1878.75
2023-02-15T12:10:32.093Z,1890.00
2023-02-15T12:11:32.067Z,1873.12
2023-02-15T12:12:32.021Z,1833.75
2023-02-15T12:13:31.994Z,1890.00
2023-02-15T12:14:31.998Z,1867.50
2023-02-15T12:15:32.051Z,1822.50
2023-02-15T12:16:32.002Z,1850.62
2023-02-15T12:17:31.999Z,1839.38
2023-02-15T12:18:31.967Z,1800.00
2023-02-15T12:19:31.938Z,1822.50
2023-02-15T12:20:31.933Z,1816.88
2023-02-15T12:21:31.947Z,1805.62
2023-02-15T12:22:31.960Z,1794.38
2023-02-15T12:23:31.899Z,1822.50
2023-02-15T12:24:31.899Z,1861.88
2023-02-15T12:25:31.893Z,1833.75
2023-02-15T12:26:31.863Z,1800.00
2023-02-15T12:27:31.895Z,1771.88
2023-02-15T12:28:31.847Z,1766.25
2023-02-15T12:29:31.831Z,1771.88
2023-02-15T12:30:31.960Z,1811.25
2023-02-15T12:31:31.891Z,1800.00
2023-02-15T12:32:31.835Z,1816.88
2023-02-15T12:33:31.770Z,1800.00
2023-02-15T12:34:31.798Z,1794.38
2023-02-15T12:35:31.775Z,1777.50
2023-02-15T12:36:31.771Z,1794.38
2023-02-15T12:37:31.789Z,1805.62
2023-02-15T12:38:31.721Z,1788.75
2023-02-15T12:39:31.708Z,1743.75
2023-02-15T12:40:31.918Z,1715.62
2023-02-15T12:41:31.685Z,1732.50
2023-02-15T12:42:31.728Z,1738.12
2023-02-15T12:43:31.657Z,1766.25
2023-02-15T12:44:31.666Z,1755.00
2023-02-15T12:45:31.671Z,1738.12